Time;durP1;ratioP1;P1;durP2;ratioP2;P2;SDS_P1;SDS_P2;PMS_P1;PMS_P2;Temp;Humidity;BMP_temperature;BMP_pressure;BME280_temperature;BME280_humidity;BME280_pressure;Samples;Min_cycle;Max_cycle;Signal;HPM_P1;HPM_P2
2022/03/13 00:00:50;;;;;;;;;;;21.50;99.90;;;;;;5075392;28;19940;-71
2022/03/13 00:03:17;;;;;;;;;;;21.50;99.90;;;;;;5057949;28;19912;-70
2022/03/13 00:05:45;;;;;;;;;;;21.50;99.90;;;;;;5075500;28;20332;-70
2022/03/13 00:08:16;;;;;;;;;;;21.40;99.90;;;;;;5075460;28;19908;-70
2022/03/13 00:10:47;;;;;;;;;;;21.30;99.90;;;;;;5075521;28;19931;-70
2022/03/13 00:13:17;;;;;;;;;;;21.20;99.90;;;;;;5075178;28;19916;-70
2022/03/13 00:15:44;;;;;;;;;;;21.20;99.90;;;;;;5075225;28;20274;-70
2022/03/13 00:18:11;;;;;;;;;;;21.30;99.90;;;;;;5074758;28;19932;-71
2022/03/13 00:20:38;;;;;;;;;;;21.40;99.90;;;;;;5074846;28;19909;-69
2022/03/13 00:23:06;;;;;;;;;;;21.40;99.90;;;;;;5075290;28;19916;-70
2022/03/13 00:25:34;;;;;;;;;;;21.40;99.90;;;;;;5075302;28;19934;-70
2022/03/13 00:28:00;;;;;;;;;;;21.40;99.90;;;;;;5074769;28;20011;-71
2022/03/13 00:30:27;;;;;;;;;;;21.40;99.90;;;;;;5075220;28;19912;-70
2022/03/13 00:32:53;;;;;;;;;;;21.30;99.90;;;;;;5074849;28;20075;-70
2022/03/13 00:35:20;;;;;;;;;;;21.20;99.90;;;;;;5075283;28;19920;-71
2022/03/13 00:37:47;;;;;;;;;;;21.20;99.90;;;;;;5075094;28;19916;-71
2022/03/13 00:40:14;;;;;;;;;;;21.20;99.90;;;;;;5075050;28;20359;-70
2022/03/13 00:42:40;;;;;;;;;;;21.10;99.90;;;;;;5074530;28;19909;-69
2022/03/13 00:45:07;;;;;;;;;;;21.10;99.90;;;;;;5074906;28;20362;-70
2022/03/13 00:47:34;;;;;;;;;;;20.90;99.90;;;;;;5074976;28;20011;-71
2022/03/13 00:50:00;;;;;;;;;;;20.70;99.90;;;;;;5074135;28;20411;-70
2022/03/13 00:52:27;;;;;;;;;;;20.70;99.90;;;;;;5074785;28;19970;-71
2022/03/13 00:54:54;;;;;;;;;;;20.70;99.90;;;;;;5074880;28;20450;-71
2022/03/13 00:57:20;;;;;;;;;;;20.60;99.90;;;;;;5074220;28;19909;-72
2022/03/13 00:59:47;;;;;;;;;;;20.60;99.90;;;;;;5074542;28;19958;-69
2022/03/13 01:02:14;;;;;;;;;;;20.50;99.90;;;;;;5074468;28;19915;-70
2022/03/13 01:04:41;;;;;;;;;;;20.50;99.90;;;;;;5074656;28;20415;-71
2022/03/13 01:07:08;;;;;;;;;;;20.50;99.90;;;;;;5074604;28;19956;-70
2022/03/13 01:09:36;;;;;;;;;;;20.30;99.90;;;;;;5074698;28;19944;-71
2022/03/13 01:12:03;;;;;;;;;;;20.30;99.90;;;;;;5073475;28;19909;-69
2022/03/13 01:14:32;;;;;;;;;;;20.10;99.90;;;;;;5074134;28;20176;-70
2022/03/13 01:17:00;;;;;;;;;;;20.10;99.90;;;;;;5073143;28;19923;-71
2022/03/13 01:19:27;;;;;;;;;;;20.10;99.90;;;;;;5074059;28;19923;-70
2022/03/13 01:21:54;;;;;;;;;;;20.20;99.90;;;;;;5074195;28;19915;-70
2022/03/13 01:24:26;;;;;;;;;;;20.30;99.90;;;;;;5073998;28;20379;-70
2022/03/13 01:26:54;;;;;;;;;;;20.30;99.90;;;;;;5074208;28;20363;-71
2022/03/13 01:29:20;;;;;;;;;;;20.30;99.90;;;;;;5073960;28;20329;-70
2022/03/13 01:31:49;;;;;;;;;;;20.20;99.90;;;;;;5074012;28;20044;-70
2022/03/13 01:34:41;;;;;;;;;;;20.10;99.90;;;;;;5073801;28;20013;-72
2022/03/13 01:37:11;;;;;;;;;;;20.10;99.90;;;;;;5073948;28;19912;-70
2022/03/13 01:39:39;;;;;;;;;;;20.10;99.90;;;;;;5073961;28;19908;-72
2022/03/13 01:42:06;;;;;;;;;;;20.10;99.90;;;;;;5073695;28;19973;-69
2022/03/13 01:44:33;;;;;;;;;;;19.90;99.90;;;;;;5073762;28;19970;-72
2022/03/13 01:47:01;;;;;;;;;;;19.90;99.90;;;;;;5073830;28;19915;-71
2022/03/13 01:49:28;;;;;;;;;;;19.90;99.90;;;;;;5073768;28;20374;-72
2022/03/13 01:51:57;;;;;;;;;;;20.00;99.90;;;;;;5073719;28;19915;-71
2022/03/13 01:54:24;;;;;;;;;;;20.10;99.90;;;;;;5073454;28;19920;-71
2022/03/13 01:56:51;;;;;;;;;;;20.20;99.90;;;;;;5073638;28;19995;-71
2022/03/13 01:59:17;;;;;;;;;;;20.30;99.90;;;;;;5055778;28;19974;-72
2022/03/13 02:01:44;;;;;;;;;;;20.40;99.90;;;;;;5073639;28;19912;-71
2022/03/13 02:04:14;;;;;;;;;;;20.40;99.90;;;;;;5073404;28;19916;-71
2022/03/13 02:06:41;;;;;;;;;;;20.40;99.90;;;;;;5073264;28;20319;-71
2022/03/13 02:09:07;;;;;;;;;;;20.40;99.90;;;;;;5073312;28;19912;-71
2022/03/13 02:11:52;;;;;;;;;;;20.60;99.90;;;;;;5073581;28;19951;-72
2022/03/13 02:14:21;;;;;;;;;;;20.70;99.90;;;;;;5073157;28;20282;-71
2022/03/13 02:16:51;;;;;;;;;;;20.80;99.90;;;;;;5073243;28;19947;-72
2022/03/13 02:19:18;;;;;;;;;;;20.90;99.90;;;;;;5073619;28;19912;-71
2022/03/13 02:21:48;;;;;;;;;;;20.90;99.90;;;;;;5072694;28;19961;-71
2022/03/13 02:24:22;;;;;;;;;;;20.60;99.90;;;;;;5072713;28;19908;-71
2022/03/13 02:26:56;;;;;;;;;;;20.80;99.90;;;;;;5073140;28;19947;-71
2022/03/13 02:29:22;;;;;;;;;;;21.00;99.90;;;;;;5072948;28;19955;-71
2022/03/13 02:31:49;;;;;;;;;;;21.00;99.90;;;;;;5073015;28;19909;-71
2022/03/13 02:34:16;;;;;;;;;;;21.00;99.90;;;;;;5072703;28;19921;-71
2022/03/13 02:36:43;;;;;;;;;;;21.10;99.90;;;;;;5073041;28;20272;-71
2022/03/13 02:39:11;;;;;;;;;;;21.20;99.90;;;;;;5072754;28;20277;-71
2022/03/13 02:41:41;;;;;;;;;;;21.20;99.90;;;;;;5073010;28;19951;-71
2022/03/13 02:44:08;;;;;;;;;;;21.10;99.90;;;;;;5072428;28;19913;-72
2022/03/13 02:46:47;;;;;;;;;;;21.20;99.90;;;;;;5072746;28;20258;-70
2022/03/13 02:49:14;;;;;;;;;;;21.30;99.90;;;;;;5072701;28;19954;-70
2022/03/13 02:51:45;;;;;;;;;;;21.40;99.90;;;;;;5072758;28;19950;-70
2022/03/13 02:54:13;;;;;;;;;;;21.30;99.90;;;;;;5072526;28;19916;-70
2022/03/13 02:56:39;;;;;;;;;;;21.40;99.90;;;;;;5072572;28;20481;-70
2022/03/13 02:59:06;;;;;;;;;;;21.40;99.90;;;;;;5072214;28;19915;-70
2022/03/13 03:01:32;;;;;;;;;;;21.50;99.90;;;;;;5072262;28;19912;-70
2022/03/13 03:04:00;;;;;;;;;;;21.50;99.90;;;;;;5072669;28;20358;-70
2022/03/13 03:06:31;;;;;;;;;;;21.50;99.90;;;;;;5072464;28;19920;-70
2022/03/13 03:08:58;;;;;;;;;;;21.50;99.90;;;;;;5072563;28;19912;-70
2022/03/13 03:11:25;;;;;;;;;;;21.60;99.90;;;;;;5072379;28;20360;-71
2022/03/13 03:13:51;;;;;;;;;;;21.60;99.90;;;;;;5072013;28;19921;-70
2022/03/13 03:16:18;;;;;;;;;;;21.70;99.90;;;;;;5071688;28;19915;-70
2022/03/13 03:18:46;;;;;;;;;;;21.70;99.90;;;;;;5072254;28;20412;-70
2022/03/13 03:21:13;;;;;;;;;;;21.70;99.90;;;;;;5072291;28;19909;-70
2022/03/13 03:23:40;;;;;;;;;;;21.70;99.90;;;;;;5072344;28;19908;-70
2022/03/13 03:26:06;;;;;;;;;;;21.80;99.90;;;;;;5072318;28;19916;-71
2022/03/13 03:28:34;;;;;;;;;;;22.00;99.90;;;;;;5072410;28;19909;-71
2022/03/13 03:31:01;;;;;;;;;;;22.00;99.90;;;;;;5071761;28;19930;-71
2022/03/13 03:33:29;;;;;;;;;;;22.10;99.90;;;;;;5072038;28;19913;-70
2022/03/13 03:35:55;;;;;;;;;;;22.20;99.90;;;;;;5072041;28;19916;-71
2022/03/13 03:38:22;;;;;;;;;;;22.30;99.90;;;;;;5071929;28;19918;-71
2022/03/13 03:40:49;;;;;;;;;;;22.20;99.90;;;;;;5072098;28;19909;-71
2022/03/13 03:43:15;;;;;;;;;;;22.30;99.90;;;;;;5072170;28;19923;-72
2022/03/13 03:45:42;;;;;;;;;;;22.30;99.90;;;;;;5072189;28;19909;-71
2022/03/13 03:48:09;;;;;;;;;;;22.30;99.90;;;;;;5071848;28;19995;-70
2022/03/13 03:50:35;;;;;;;;;;;22.30;99.90;;;;;;5072180;28;19909;-71
2022/03/13 03:53:02;;;;;;;;;;;22.30;99.90;;;;;;5071909;28;19955;-70
2022/03/13 03:55:29;;;;;;;;;;;22.20;99.90;;;;;;5071985;28;20147;-70
2022/03/13 03:57:56;;;;;;;;;;;22.20;99.90;;;;;;5071876;28;20306;-70
2022/03/13 04:00:26;;;;;;;;;;;22.20;99.90;;;;;;5071526;28;19909;-71
2022/03/13 04:02:54;;;;;;;;;;;22.30;99.90;;;;;;5072074;28;19915;-71
2022/03/13 04:05:20;;;;;;;;;;;22.30;99.90;;;;;;5071806;28;19935;-71
2022/03/13 04:07:47;;;;;;;;;;;22.40;99.90;;;;;;5072127;28;19916;-70
2022/03/13 04:10:13;;;;;;;;;;;22.40;99.90;;;;;;5071659;28;19955;-70
2022/03/13 04:12:40;;;;;;;;;;;22.40;99.90;;;;;;5071510;28;19943;-70
2022/03/13 04:15:07;;;;;;;;;;;22.50;99.90;;;;;;5071695;28;19916;-70
2022/03/13 04:17:35;;;;;;;;;;;22.50;99.90;;;;;;5071428;28;19921;-70
2022/03/13 04:20:03;;;;;;;;;;;22.40;99.90;;;;;;5071683;28;20262;-70
2022/03/13 04:22:30;;;;;;;;;;;22.50;99.90;;;;;;5071623;28;19934;-70
2022/03/13 04:24:56;;;;;;;;;;;22.60;99.90;;;;;;5072576;28;19982;-71
2022/03/13 04:27:23;;;;;;;;;;;22.60;99.90;;;;;;5075230;28;19957;-70
2022/03/13 04:29:50;;;;;;;;;;;22.50;99.90;;;;;;5075297;28;19915;-70
2022/03/13 04:32:21;;;;;;;;;;;22.40;99.90;;;;;;5074877;28;19908;-70
2022/03/13 04:34:48;;;;;;;;;;;22.40;99.90;;;;;;5075115;28;19924;-69
2022/03/13 04:37:15;;;;;;;;;;;22.30;99.90;;;;;;5075100;28;19991;-70
2022/03/13 04:39:42;;;;;;;;;;;22.30;99.90;;;;;;5075219;28;19963;-70
2022/03/13 04:42:09;;;;;;;;;;;22.30;99.90;;;;;;5074922;28;19935;-70
2022/03/13 04:44:36;;;;;;;;;;;22.30;99.90;;;;;;5074736;28;19912;-70
2022/03/13 04:47:02;;;;;;;;;;;22.30;99.90;;;;;;5074879;28;19970;-71
2022/03/13 04:49:29;;;;;;;;;;;22.30;99.90;;;;;;5074907;28;19995;-71
2022/03/13 04:51:56;;;;;;;;;;;22.40;99.90;;;;;;5075022;28;19946;-70
2022/03/13 04:54:22;;;;;;;;;;;22.40;99.90;;;;;;5074582;28;19920;-70
2022/03/13 04:56:49;;;;;;;;;;;22.40;99.90;;;;;;5074797;28;19954;-71
2022/03/13 04:59:16;;;;;;;;;;;22.40;99.90;;;;;;5074771;28;19934;-71
2022/03/13 05:01:42;;;;;;;;;;;22.40;99.90;;;;;;5074502;28;19909;-70
2022/03/13 05:04:09;;;;;;;;;;;22.50;99.90;;;;;;5074402;28;19912;-71
2022/03/13 05:06:37;;;;;;;;;;;22.50;99.90;;;;;;5074603;28;19908;-70
2022/03/13 05:09:05;;;;;;;;;;;22.50;99.90;;;;;;5058175;28;19952;-71
2022/03/13 05:11:32;;;;;;;;;;;22.50;99.90;;;;;;5054411;28;19909;-71
2022/03/13 05:13:59;;;;;;;;;;;22.50;99.90;;;;;;5054225;28;19912;-71
2022/03/13 05:16:25;;;;;;;;;;;22.50;99.90;;;;;;5054383;28;19909;-71
2022/03/13 05:18:52;;;;;;;;;;;22.50;99.90;;;;;;5053835;28;19916;-71
2022/03/13 05:21:19;;;;;;;;;;;22.40;99.90;;;;;;5054156;28;19967;-72
2022/03/13 05:23:45;;;;;;;;;;;22.40;99.90;;;;;;5054207;28;19952;-70
2022/03/13 05:26:12;;;;;;;;;;;22.20;99.90;;;;;;5053844;28;19916;-70
2022/03/13 05:28:39;;;;;;;;;;;22.20;99.90;;;;;;5054051;28;19915;-70
2022/03/13 05:31:06;;;;;;;;;;;22.10;99.90;;;;;;5054047;28;19916;-71
2022/03/13 05:33:32;;;;;;;;;;;22.10;99.90;;;;;;5053512;28;19920;-71
2022/03/13 05:35:59;;;;;;;;;;;22.00;99.90;;;;;;5053747;28;19935;-70
2022/03/13 05:38:26;;;;;;;;;;;21.90;99.90;;;;;;5053850;28;19909;-70
2022/03/13 05:40:53;;;;;;;;;;;21.80;99.90;;;;;;5054082;28;19909;-70
2022/03/13 05:43:22;;;;;;;;;;;21.70;99.90;;;;;;5053530;28;19963;-70
2022/03/13 05:45:48;;;;;;;;;;;21.70;99.90;;;;;;5054030;28;19909;-70
2022/03/13 05:48:17;;;;;;;;;;;21.70;99.90;;;;;;5053113;28;19916;-71
2022/03/13 05:50:45;;;;;;;;;;;21.60;99.90;;;;;;5053759;28;20324;-71
2022/03/13 05:53:11;;;;;;;;;;;21.60;99.90;;;;;;5053685;28;19912;-71
2022/03/13 05:55:38;;;;;;;;;;;21.70;99.90;;;;;;5053616;28;19913;-71
2022/03/13 05:58:05;;;;;;;;;;;21.70;99.90;;;;;;5053559;28;19955;-70
2022/03/13 06:00:32;;;;;;;;;;;21.70;99.90;;;;;;5053594;28;19909;-70
2022/03/13 06:03:00;;;;;;;;;;;21.90;99.90;;;;;;5053200;28;19975;-69
2022/03/13 06:05:27;;;;;;;;;;;21.90;99.90;;;;;;5053785;28;20075;-70
2022/03/13 06:07:55;;;;;;;;;;;21.90;99.90;;;;;;5053303;28;19908;-70
2022/03/13 06:10:22;;;;;;;;;;;21.80;99.90;;;;;;5053215;28;20249;-69
2022/03/13 06:12:48;;;;;;;;;;;21.90;99.90;;;;;;5053143;28;20034;-70
2022/03/13 06:15:17;;;;;;;;;;;21.90;99.90;;;;;;5053067;28;19999;-70
2022/03/13 06:17:44;;;;;;;;;;;21.90;99.90;;;;;;5053044;28;19920;-70
2022/03/13 06:20:11;;;;;;;;;;;21.80;99.90;;;;;;5052742;28;19909;-70
2022/03/13 06:22:39;;;;;;;;;;;21.80;99.90;;;;;;5053031;28;19944;-71
2022/03/13 06:25:07;;;;;;;;;;;21.80;99.90;;;;;;5053049;28;19923;-70
2022/03/13 06:27:35;;;;;;;;;;;21.70;99.90;;;;;;5053115;28;19924;-70
2022/03/13 06:30:09;;;;;;;;;;;21.70;99.90;;;;;;5053134;28;19908;-71
2022/03/13 06:32:36;;;;;;;;;;;21.70;99.90;;;;;;5052795;28;20390;-70
2022/03/13 06:35:03;;;;;;;;;;;21.70;99.90;;;;;;5053086;28;19917;-71
2022/03/13 06:37:30;;;;;;;;;;;21.60;99.90;;;;;;5052607;28;19909;-71
2022/03/13 06:39:57;;;;;;;;;;;21.60;99.90;;;;;;5052836;28;19913;-71
2022/03/13 06:42:24;;;;;;;;;;;21.60;99.90;;;;;;5052569;28;19959;-71
2022/03/13 06:44:51;;;;;;;;;;;21.60;99.90;;;;;;5052628;28;19908;-71
2022/03/13 06:47:17;;;;;;;;;;;21.60;99.90;;;;;;5051980;28;19913;-70
2022/03/13 06:49:44;;;;;;;;;;;21.60;99.90;;;;;;5051879;28;19912;-70
2022/03/13 06:52:10;;;;;;;;;;;21.60;99.90;;;;;;5052293;28;19909;-69
2022/03/13 06:54:38;;;;;;;;;;;21.60;99.90;;;;;;5052644;28;19920;-70
2022/03/13 06:57:04;;;;;;;;;;;21.60;99.90;;;;;;5052295;28;19909;-70
2022/03/13 06:59:31;;;;;;;;;;;21.50;99.90;;;;;;5052020;28;19912;-69
2022/03/13 07:01:58;;;;;;;;;;;21.50;99.90;;;;;;5052609;28;19912;-70
2022/03/13 07:04:24;;;;;;;;;;;21.50;99.90;;;;;;5051419;28;19909;-70
2022/03/13 07:06:51;;;;;;;;;;;21.60;99.90;;;;;;5052447;28;19913;-70
2022/03/13 07:09:18;;;;;;;;;;;21.60;99.90;;;;;;5052475;28;20370;-70
2022/03/13 07:11:47;;;;;;;;;;;21.60;99.90;;;;;;5052280;28;19913;-70
2022/03/13 07:14:14;;;;;;;;;;;21.70;99.90;;;;;;5051915;28;19923;-71
2022/03/13 07:16:41;;;;;;;;;;;21.60;99.90;;;;;;5052497;28;20346;-70
2022/03/13 07:19:07;;;;;;;;;;;21.60;99.90;;;;;;5051631;28;19912;-70
2022/03/13 07:21:34;;;;;;;;;;;21.60;99.90;;;;;;5052287;28;20004;-71
2022/03/13 07:24:01;;;;;;;;;;;21.50;99.90;;;;;;5052426;28;19909;-70
2022/03/13 07:26:27;;;;;;;;;;;21.50;99.90;;;;;;5052190;28;19936;-70
2022/03/13 07:28:54;;;;;;;;;;;21.50;99.90;;;;;;5052243;28;19909;-70
2022/03/13 07:31:21;;;;;;;;;;;21.50;99.90;;;;;;5052375;28;19924;-71
2022/03/13 07:33:48;;;;;;;;;;;21.60;99.90;;;;;;5051616;28;19917;-71
2022/03/13 07:36:14;;;;;;;;;;;21.50;99.90;;;;;;5052120;28;19917;-70
2022/03/13 07:38:41;;;;;;;;;;;21.50;99.90;;;;;;5052132;28;19909;-70
2022/03/13 07:41:07;;;;;;;;;;;21.50;99.90;;;;;;5051797;28;19912;-70
2022/03/13 07:43:34;;;;;;;;;;;21.50;99.90;;;;;;5052108;28;19909;-70
2022/03/13 07:46:01;;;;;;;;;;;21.50;99.90;;;;;;5052175;28;19931;-70
2022/03/13 07:48:28;;;;;;;;;;;21.50;99.90;;;;;;5051643;28;19913;-69
2022/03/13 07:50:55;;;;;;;;;;;21.40;99.90;;;;;;5052177;28;20374;-70
2022/03/13 07:53:26;;;;;;;;;;;21.40;99.90;;;;;;5052171;28;19943;-69
2022/03/13 07:55:53;;;;;;;;;;;21.40;99.90;;;;;;5052104;28;19912;-70
2022/03/13 07:58:20;;;;;;;;;;;21.40;99.90;;;;;;5051880;28;19916;-70
2022/03/13 08:00:47;;;;;;;;;;;21.50;99.90;;;;;;5055673;28;19916;-70
2022/03/13 08:03:17;;;;;;;;;;;21.50;99.90;;;;;;5055230;28;19909;-69
2022/03/13 08:05:44;;;;;;;;;;;21.40;99.90;;;;;;5055920;28;19956;-71
2022/03/13 08:08:10;;;;;;;;;;;21.30;99.90;;;;;;5055432;28;20275;-70
2022/03/13 08:10:37;;;;;;;;;;;21.30;99.90;;;;;;5055649;28;20284;-71
2022/03/13 08:13:04;;;;;;;;;;;21.30;99.90;;;;;;5055213;28;19909;-71
2022/03/13 08:15:30;;;;;;;;;;;21.30;99.90;;;;;;5055555;28;20516;-70
2022/03/13 08:17:57;;;;;;;;;;;21.20;99.90;;;;;;5055553;28;19924;-70
2022/03/13 08:20:24;;;;;;;;;;;21.20;99.90;;;;;;5055489;28;20286;-70
2022/03/13 08:22:50;;;;;;;;;;;21.20;99.90;;;;;;5055428;28;19909;-70
2022/03/13 08:25:19;;;;;;;;;;;21.30;99.90;;;;;;5055606;28;19921;-71
2022/03/13 08:27:46;;;;;;;;;;;21.20;99.90;;;;;;5055460;28;19934;-71
2022/03/13 08:30:13;;;;;;;;;;;21.20;99.90;;;;;;5055394;28;20417;-70
2022/03/13 08:32:40;;;;;;;;;;;21.30;99.90;;;;;;5055320;28;19962;-71
2022/03/13 08:35:07;;;;;;;;;;;21.20;99.90;;;;;;5055266;28;19917;-69
2022/03/13 08:37:34;;;;;;;;;;;21.20;99.90;;;;;;5055275;28;20046;-71
2022/03/13 08:40:03;;;;;;;;;;;21.20;99.90;;;;;;5055652;28;19909;-70
2022/03/13 08:42:30;;;;;;;;;;;21.10;99.90;;;;;;5055024;28;20389;-70
2022/03/13 08:44:57;;;;;;;;;;;21.10;99.90;;;;;;5054419;28;20416;-69
2022/03/13 08:47:24;;;;;;;;;;;21.00;99.90;;;;;;5054810;28;19908;-69
2022/03/13 08:49:51;;;;;;;;;;;20.90;99.90;;;;;;5055058;28;20405;-69
2022/03/13 08:52:18;;;;;;;;;;;20.90;99.90;;;;;;5054647;28;19935;-70
2022/03/13 08:54:45;;;;;;;;;;;20.90;99.90;;;;;;5054696;28;20363;-70
2022/03/13 08:57:12;;;;;;;;;;;20.80;99.90;;;;;;5054745;28;19963;-70
2022/03/13 08:59:38;;;;;;;;;;;20.80;99.90;;;;;;5054226;28;19913;-70
2022/03/13 09:02:05;;;;;;;;;;;20.90;99.90;;;;;;5054582;28;19987;-70
2022/03/13 09:04:32;;;;;;;;;;;20.80;99.90;;;;;;5054972;28;20004;-69
2022/03/13 09:06:59;;;;;;;;;;;20.80;99.90;;;;;;5054620;28;20279;-69
2022/03/13 09:09:26;;;;;;;;;;;20.80;99.90;;;;;;5054461;28;20371;-70
2022/03/13 09:11:52;;;;;;;;;;;20.80;99.90;;;;;;5053809;28;19913;-69
2022/03/13 09:14:20;;;;;;;;;;;20.80;99.90;;;;;;5053559;28;19978;-69
2022/03/13 09:16:46;;;;;;;;;;;20.70;99.90;;;;;;5054465;28;19913;-69
2022/03/13 09:19:14;;;;;;;;;;;20.80;99.90;;;;;;5054213;28;19962;-69
2022/03/13 09:21:40;;;;;;;;;;;20.80;99.90;;;;;;5054110;28;19962;-69
2022/03/13 09:24:08;;;;;;;;;;;20.70;99.90;;;;;;5054062;28;19921;-70
2022/03/13 09:26:35;;;;;;;;;;;20.80;99.90;;;;;;5054485;28;20286;-69
2022/03/13 09:29:03;;;;;;;;;;;20.70;99.90;;;;;;5053706;28;19916;-71
2022/03/13 09:31:29;;;;;;;;;;;20.80;99.90;;;;;;5054133;28;19909;-71
2022/03/13 09:33:56;;;;;;;;;;;20.80;99.90;;;;;;5054033;28;20008;-69
2022/03/13 09:36:24;;;;;;;;;;;20.80;99.90;;;;;;5053781;28;19913;-69
2022/03/13 09:38:51;;;;;;;;;;;20.80;99.90;;;;;;5054111;28;19919;-70
2022/03/13 09:41:18;;;;;;;;;;;20.70;99.90;;;;;;5053848;28;19939;-70
2022/03/13 09:43:45;;;;;;;;;;;20.80;99.90;;;;;;5053283;28;19909;-70
2022/03/13 09:46:13;;;;;;;;;;;20.80;99.90;;;;;;5036021;28;19909;-70
2022/03/13 09:48:39;;;;;;;;;;;20.90;99.90;;;;;;5054033;28;19909;-69
2022/03/13 09:51:09;;;;;;;;;;;20.90;99.90;;;;;;5053864;28;19908;-70
2022/03/13 09:53:36;;;;;;;;;;;20.90;99.90;;;;;;5053860;28;20442;-70
2022/03/13 09:56:04;;;;;;;;;;;20.80;99.90;;;;;;5053779;28;19909;-70
2022/03/13 09:58:31;;;;;;;;;;;20.80;99.90;;;;;;5053113;28;19908;-69
2022/03/13 10:00:58;;;;;;;;;;;20.80;99.90;;;;;;5053843;28;19913;-71
2022/03/13 10:03:25;;;;;;;;;;;20.80;99.90;;;;;;5053780;28;19917;-71
2022/03/13 10:05:55;;;;;;;;;;;20.80;99.90;;;;;;5053616;28;19913;-71
2022/03/13 10:08:26;;;;;;;;;;;20.80;99.90;;;;;;5053277;28;19959;-71
2022/03/13 10:10:54;;;;;;;;;;;20.90;99.90;;;;;;5053673;28;19916;-71
2022/03/13 10:13:35;;;;;;;;;;;20.90;99.90;;;;;;5052442;28;19920;-71
2022/03/13 10:16:03;;;;;;;;;;;20.80;99.90;;;;;;5053045;28;19912;-72
2022/03/13 10:18:29;;;;;;;;;;;20.80;99.90;;;;;;5053069;28;19921;-72
2022/03/13 10:20:56;;;;;;;;;;;20.80;99.90;;;;;;5053160;28;20259;-71
2022/03/13 10:23:30;;;;;;;;;;;20.80;99.90;;;;;;5052424;28;20002;-70
2022/03/13 10:25:56;;;;;;;;;;;20.80;99.90;;;;;;5053371;28;19916;-70
2022/03/13 10:28:23;;;;;;;;;;;20.80;99.90;;;;;;5052151;28;19940;-70
2022/03/13 10:30:56;;;;;;;;;;;20.80;99.90;;;;;;5052951;28;19954;-70
2022/03/13 10:33:23;;;;;;;;;;;20.70;99.90;;;;;;5052875;28;20378;-70
2022/03/13 10:35:49;;;;;;;;;;;20.70;99.90;;;;;;5052806;28;19908;-70
2022/03/13 10:38:20;;;;;;;;;;;20.60;99.90;;;;;;5052691;28;20103;-70
2022/03/13 10:40:50;;;;;;;;;;;20.60;99.90;;;;;;5053123;28;19909;-71
2022/03/13 10:43:20;;;;;;;;;;;20.60;99.90;;;;;;5052954;28;20338;-70
2022/03/13 10:45:53;;;;;;;;;;;20.60;99.90;;;;;;5052894;28;19955;-70
2022/03/13 10:48:23;;;;;;;;;;;20.50;99.90;;;;;;5052637;28;19908;-71
2022/03/13 10:50:51;;;;;;;;;;;20.50;99.90;;;;;;5052943;28;19909;-70
2022/03/13 10:53:19;;;;;;;;;;;20.50;99.90;;;;;;5052776;28;19916;-71
2022/03/13 10:56:02;;;;;;;;;;;20.40;99.90;;;;;;5052660;28;20007;-70
2022/03/13 10:58:30;;;;;;;;;;;20.40;99.90;;;;;;5052631;28;19915;-69
2022/03/13 11:01:04;;;;;;;;;;;20.40;99.90;;;;;;5052593;28;19912;-70
2022/03/13 11:03:32;;;;;;;;;;;20.40;99.90;;;;;;5052670;28;20359;-70
2022/03/13 11:05:59;;;;;;;;;;;20.40;99.90;;;;;;5052603;28;20321;-70
2022/03/13 11:08:26;;;;;;;;;;;20.30;99.90;;;;;;5052334;28;20359;-71
2022/03/13 11:10:58;;;;;;;;;;;20.40;99.90;;;;;;5052222;28;19908;-71
2022/03/13 11:13:28;;;;;;;;;;;20.30;99.90;;;;;;5052318;28;19979;-71
2022/03/13 11:15:58;;;;;;;;;;;20.40;99.90;;;;;;5052390;28;19908;-70
2022/03/13 11:18:29;;;;;;;;;;;20.40;99.90;;;;;;5051786;28;20294;-70
2022/03/13 11:20:56;;;;;;;;;;;20.40;99.90;;;;;;5052583;28;19948;-71
2022/03/13 11:23:23;;;;;;;;;;;20.40;99.90;;;;;;5052411;28;19908;-71
2022/03/13 11:25:55;;;;;;;;;;;20.30;99.90;;;;;;5052446;28;19980;-71
2022/03/13 11:28:22;;;;;;;;;;;20.30;99.90;;;;;;5051933;28;19916;-70
2022/03/13 11:30:49;;;;;;;;;;;20.30;99.90;;;;;;5052210;28;19909;-70
2022/03/13 11:33:32;;;;;;;;;;;20.20;99.90;;;;;;5052048;28;19942;-71
2022/03/13 11:36:17;;;;;;;;;;;20.30;99.90;;;;;;5056430;28;19959;-71
2022/03/13 11:39:02;;;;;;;;;;;20.30;99.90;;;;;;5056282;28;19913;-70
2022/03/13 11:41:49;;;;;;;;;;;20.20;99.90;;;;;;5056233;28;20256;-70
2022/03/13 11:44:19;;;;;;;;;;;20.20;99.90;;;;;;5055687;28;19963;-70
2022/03/13 11:46:47;;;;;;;;;;;20.20;99.90;;;;;;5056255;28;19909;-71
2022/03/13 11:49:37;;;;;;;;;;;20.20;99.90;;;;;;5056164;28;20274;-70
2022/03/13 11:52:10;;;;;;;;;;;20.20;99.90;;;;;;5047891;28;20309;-71
2022/03/13 11:55:04;;;;;;;;;;;20.10;99.90;;;;;;5055837;28;20294;-71
2022/03/13 11:57:41;;;;;;;;;;;20.10;99.90;;;;;;5056097;28;19909;-71
2022/03/13 12:00:11;;;;;;;;;;;20.10;99.90;;;;;;5055869;28;19908;-71
2022/03/13 12:02:41;;;;;;;;;;;20.10;99.90;;;;;;5056023;28;19932;-70
2022/03/13 12:05:25;;;;;;;;;;;20.10;99.90;;;;;;5055687;28;19913;-71
2022/03/13 12:08:05;;;;;;;;;;;20.10;99.90;;;;;;5056060;28;20000;-70
2022/03/13 12:10:35;;;;;;;;;;;20.10;99.90;;;;;;5056092;28;19909;-70
2022/03/13 12:13:05;;;;;;;;;;;20.20;99.90;;;;;;5055504;28;19908;-70
2022/03/13 12:15:32;;;;;;;;;;;20.20;99.90;;;;;;5055832;28;19913;-72
2022/03/13 12:18:01;;;;;;;;;;;20.20;99.90;;;;;;5055511;28;19925;-72
2022/03/13 12:20:28;;;;;;;;;;;20.20;99.90;;;;;;5055494;28;20011;-72
2022/03/13 12:22:56;;;;;;;;;;;20.20;99.90;;;;;;5055642;28;20329;-72
2022/03/13 12:25:27;;;;;;;;;;;20.30;99.90;;;;;;5055594;28;19916;-71
2022/03/13 12:27:54;;;;;;;;;;;20.30;99.90;;;;;;5055334;28;19909;-71
2022/03/13 12:30:30;;;;;;;;;;;20.30;99.90;;;;;;5055256;28;19940;-70
2022/03/13 12:33:00;;;;;;;;;;;20.30;99.90;;;;;;5055549;28;20347;-70
2022/03/13 12:35:28;;;;;;;;;;;20.40;99.90;;;;;;5055494;28;19917;-72
2022/03/13 12:38:01;;;;;;;;;;;20.40;99.90;;;;;;5055152;28;20260;-72
2022/03/13 12:40:30;;;;;;;;;;;20.40;99.90;;;;;;5055328;28;19971;-71
2022/03/13 12:42:58;;;;;;;;;;;20.40;99.90;;;;;;5054932;28;19970;-72
2022/03/13 12:45:25;;;;;;;;;;;20.30;99.90;;;;;;5053854;28;19913;-72
2022/03/13 12:47:54;;;;;;;;;;;20.30;99.90;;;;;;5054988;28;20363;-72
2022/03/13 12:50:23;;;;;;;;;;;20.20;99.90;;;;;;5054834;28;19916;-72
2022/03/13 12:53:01;;;;;;;;;;;20.20;99.90;;;;;;5055084;28;20011;-72
2022/03/13 12:55:28;;;;;;;;;;;20.20;99.90;;;;;;5055041;28;19925;-72
2022/03/13 12:57:57;;;;;;;;;;;20.20;99.90;;;;;;5054701;28;19948;-71
2022/03/13 13:00:36;;;;;;;;;;;20.10;99.90;;;;;;5054606;28;19947;-70
2022/03/13 13:03:05;;;;;;;;;;;20.10;99.90;;;;;;5053612;28;19916;-70
2022/03/13 13:05:32;;;;;;;;;;;20.10;99.90;;;;;;5054822;28;19912;-70
2022/03/13 13:07:58;;;;;;;;;;;20.10;99.90;;;;;;5054916;28;19909;-71
2022/03/13 13:10:25;;;;;;;;;;;20.00;99.90;;;;;;5054627;28;20308;-70
2022/03/13 13:12:52;;;;;;;;;;;20.00;99.90;;;;;;5054539;28;19943;-71
2022/03/13 13:15:22;;;;;;;;;;;19.90;99.90;;;;;;5054545;28;19917;-72
2022/03/13 13:17:50;;;;;;;;;;;19.90;99.90;;;;;;5054292;28;19921;-70
2022/03/13 13:20:21;;;;;;;;;;;19.90;99.90;;;;;;5036553;28;19916;-71
2022/03/13 13:22:49;;;;;;;;;;;19.90;99.90;;;;;;5054409;28;19913;-71
2022/03/13 13:25:19;;;;;;;;;;;19.90;99.90;;;;;;5054505;28;20017;-71
2022/03/13 13:27:53;;;;;;;;;;;19.80;99.90;;;;;;5054116;28;19909;-71
2022/03/13 13:30:36;;;;;;;;;;;19.80;99.90;;;;;;5054054;28;19909;-71
2022/03/13 13:33:07;;;;;;;;;;;19.80;99.90;;;;;;5054210;28;20263;-71
2022/03/13 13:35:35;;;;;;;;;;;19.80;99.90;;;;;;5054338;28;19913;-72
2022/03/13 13:38:07;;;;;;;;;;;19.70;99.90;;;;;;5054191;28;19956;-71
2022/03/13 13:40:35;;;;;;;;;;;19.70;99.90;;;;;;5053960;28;19913;-71
2022/03/13 13:43:06;;;;;;;;;;;19.70;99.90;;;;;;5054087;28;19909;-71
2022/03/13 13:45:33;;;;;;;;;;;19.70;99.90;;;;;;5054031;28;19913;-71
2022/03/13 13:48:19;;;;;;;;;;;19.70;99.90;;;;;;5054166;28;20275;-71
2022/03/13 13:50:49;;;;;;;;;;;19.70;99.90;;;;;;5053976;28;19955;-71
2022/03/13 13:53:16;;;;;;;;;;;19.70;99.90;;;;;;5053921;28;19909;-71
2022/03/13 13:55:43;;;;;;;;;;;19.70;99.90;;;;;;5053703;28;19916;-71
2022/03/13 13:58:17;;;;;;;;;;;19.70;99.90;;;;;;5053449;28;19915;-71
2022/03/13 14:00:47;;;;;;;;;;;19.70;99.90;;;;;;5053735;28;20274;-71
2022/03/13 14:03:14;;;;;;;;;;;19.70;99.90;;;;;;5053537;28;19909;-71
2022/03/13 14:05:41;;;;;;;;;;;19.70;99.90;;;;;;5053623;28;20266;-71
2022/03/13 14:08:08;;;;;;;;;;;19.70;99.90;;;;;;5053552;28;19959;-72
2022/03/13 14:10:35;;;;;;;;;;;19.70;99.90;;;;;;5053346;28;19940;-72
2022/03/13 14:13:01;;;;;;;;;;;19.70;99.90;;;;;;5053516;28;19908;-72
2022/03/13 14:15:29;;;;;;;;;;;19.70;99.90;;;;;;5053376;28;19956;-72
2022/03/13 14:17:56;;;;;;;;;;;19.70;99.90;;;;;;5053335;28;19932;-72
2022/03/13 14:20:23;;;;;;;;;;;19.70;99.90;;;;;;5053198;28;19919;-72
2022/03/13 14:22:50;;;;;;;;;;;19.70;99.90;;;;;;5053247;28;19908;-72